Time;durP1;ratioP1;P1;durP2;ratioP2;P2;SDS_P1;SDS_P2;PMS_P1;PMS_P2;Temp;Humidity;BMP_temperature;BMP_pressure;BME280_temperature;BME280_humidity;BME280_pressure;Samples;Min_cycle;Max_cycle;Signal;HPM_P1;HPM_P2
2022/07/11 00:00:09;;;;;;;0.95;0.50;;;;;;;17.63;100.00;98835.37;1744796;80;21069;-56
2022/07/11 00:02:39;;;;;;;0.85;0.50;;;;;;;17.59;100.00;98832.06;1744607;80;20986;-57
2022/07/11 00:05:07;;;;;;;1.07;0.40;;;;;;;17.56;100.00;98834.19;1740527;80;20930;-56
2022/07/11 00:07:33;;;;;;;0.40;0.37;;;;;;;17.51;100.00;98835.98;1744307;80;22080;-56
2022/07/11 00:09:59;;;;;;;1.35;0.40;;;;;;;17.46;100.00;98836.88;1745065;80;20933;-56
2022/07/11 00:12:27;;;;;;;0.40;0.30;;;;;;;17.44;100.00;98841.59;1742748;80;20890;-56
2022/07/11 00:14:54;;;;;;;2.05;0.40;;;;;;;17.41;100.00;98841.89;1744922;80;20898;-55
2022/07/11 00:17:21;;;;;;;2.25;0.40;;;;;;;17.41;100.00;98841.89;1743650;80;20973;-56
2022/07/11 00:19:48;;;;;;;2.08;0.40;;;;;;;17.40;100.00;98838.31;1741602;80;21200;-56
2022/07/11 00:22:15;;;;;;;0.68;0.50;;;;;;;17.43;100.00;98841.27;1744124;80;21437;-56
2022/07/11 00:24:41;;;;;;;0.40;0.40;;;;;;;17.43;100.00;98837.19;1747323;80;20930;-55
2022/07/11 00:27:08;;;;;;;3.60;0.75;;;;;;;17.43;100.00;98835.83;1744724;80;20949;-55
2022/07/11 00:29:36;;;;;;;0.85;0.47;;;;;;;17.42;100.00;98835.46;1742529;80;20965;-55
2022/07/11 00:32:05;;;;;;;0.62;0.40;;;;;;;17.39;100.00;98835.73;1739165;80;21250;-55
2022/07/11 00:34:32;;;;;;;0.72;0.40;;;;;;;17.36;100.00;98834.63;1742893;80;21037;-55
2022/07/11 00:36:58;;;;;;;0.60;0.42;;;;;;;17.32;100.00;98831.34;1746529;80;21019;-56
2022/07/11 00:39:24;;;;;;;1.95;0.40;;;;;;;17.27;100.00;98830.88;1744590;80;21072;-56
2022/07/11 00:41:51;;;;;;;1.82;0.50;;;;;;;17.26;100.00;98824.25;1742318;80;21392;-56
2022/07/11 00:44:17;;;;;;;2.00;0.47;;;;;;;17.24;100.00;98825.73;1744744;80;21147;-55
2022/07/11 00:46:44;;;;;;;0.50;0.50;;;;;;;17.21;100.00;98829.22;1741334;80;21073;-55
2022/07/11 00:49:10;;;;;;;0.72;0.55;;;;;;;17.17;100.00;98825.94;1746220;80;21050;-56
2022/07/11 00:51:37;;;;;;;1.12;0.60;;;;;;;17.16;100.00;98820.13;1741474;80;21394;-55
2022/07/11 00:54:04;;;;;;;1.47;0.55;;;;;;;17.13;100.00;98824.97;1713766;80;21560;-55
2022/07/11 00:56:30;;;;;;;0.95;0.70;;;;;;;17.10;100.00;98817.11;1695427;80;21920;-55
2022/07/11 00:58:58;;;;;;;0.70;0.60;;;;;;;17.06;100.00;98812.93;1745002;80;21132;-55
2022/07/11 01:01:25;;;;;;;1.20;0.70;;;;;;;17.00;100.00;98811.63;1743603;80;21032;-56
2022/07/11 01:03:51;;;;;;;1.50;0.70;;;;;;;16.96;100.00;98812.89;1744873;80;21111;-53
2022/07/11 01:06:18;;;;;;;1.40;0.80;;;;;;;16.92;100.00;98806.02;1754649;80;21049;-52
2022/07/11 01:08:44;;;;;;;1.30;0.80;;;;;;;16.91;100.00;98811.09;1736787;80;21253;-54
2022/07/11 01:11:12;;;;;;;1.40;0.70;;;;;;;16.90;100.00;98806.65;1740641;80;21521;-54
2022/07/11 01:13:40;;;;;;;3.90;0.90;;;;;;;16.91;100.00;98808.38;1744027;80;21069;-54
2022/07/11 01:16:17;;;;;;;2.40;1.20;;;;;;;16.92;100.00;98810.09;1739744;80;21563;-54
2022/07/11 01:18:47;;;;;;;3.30;1.12;;;;;;;16.91;100.00;98810.59;1743276;80;21640;-54
2022/07/11 01:21:25;;;;;;;2.72;1.17;;;;;;;16.90;100.00;98808.88;1740861;80;21752;-53
2022/07/11 01:23:54;;;;;;;4.90;1.50;;;;;;;16.88;100.00;98809.50;1746863;80;21025;-54
2022/07/11 01:26:22;;;;;;;2.80;1.17;;;;;;;16.84;100.00;98802.59;1747011;80;21080;-53
2022/07/11 01:28:49;;;;;;;4.80;1.25;;;;;;;16.81;100.00;98811.05;1740410;80;21029;-54
2022/07/11 01:31:16;;;;;;;3.80;1.42;;;;;;;16.80;100.00;98811.17;1745720;80;21139;-54
2022/07/11 01:33:42;;;;;;;4.05;1.50;;;;;;;16.75;100.00;98808.88;1740952;80;21225;-55
2022/07/11 01:36:09;;;;;;;8.63;1.80;;;;;;;16.73;100.00;98808.64;1740724;80;21009;-54
2022/07/11 01:38:36;;;;;;;4.20;1.92;;;;;;;16.72;100.00;98805.56;1743413;80;21029;-53
2022/07/11 01:41:02;;;;;;;4.97;1.87;;;;;;;16.71;100.00;98797.04;1741196;80;21034;-54
2022/07/11 01:43:29;;;;;;;3.90;1.85;;;;;;;16.69;100.00;98802.60;1744350;80;21045;-53
2022/07/11 01:45:56;;;;;;;7.50;3.33;;;;;;;16.68;100.00;98804.95;1745081;80;21293;-54
2022/07/11 01:48:22;;;;;;;4.70;2.75;;;;;;;16.67;100.00;98809.19;1744355;80;21025;-54
2022/07/11 01:50:49;;;;;;;7.42;2.80;;;;;;;16.63;100.00;98809.45;1736866;80;21335;-55
2022/07/11 01:53:15;;;;;;;6.30;2.50;;;;;;;16.61;100.00;98807.36;1742970;80;21566;-54
2022/07/11 01:55:42;;;;;;;6.95;2.70;;;;;;;16.56;100.00;98808.23;1741563;80;21068;-53
2022/07/11 01:58:08;;;;;;;6.83;2.67;;;;;;;16.52;100.00;98805.91;1741102;80;21124;-54
2022/07/11 02:00:35;;;;;;;4.62;2.40;;;;;;;16.48;100.00;98798.55;1743103;80;21109;-54
2022/07/11 02:03:02;;;;;;;6.08;2.52;;;;;;;16.47;100.00;98802.25;1742190;80;21311;-54
2022/07/11 02:05:28;;;;;;;8.80;3.15;;;;;;;16.47;100.00;98798.67;1746471;80;21121;-53
2022/07/11 02:08:13;;;;;;;7.75;2.98;;;;;;;16.47;100.00;98806.33;1747133;80;21044;-53
2022/07/11 02:10:47;;;;;;;7.45;3.65;;;;;;;16.47;100.00;98805.46;1741065;80;21436;-53
2022/07/11 02:13:17;;;;;;;9.75;4.17;;;;;;;16.46;100.00;98811.39;1744976;80;21057;-54
2022/07/11 02:15:43;;;;;;;9.60;5.15;;;;;;;16.46;100.00;98810.52;1748891;80;20957;-54
2022/07/11 02:18:11;;;;;;;12.35;4.22;;;;;;;16.44;100.00;98808.44;1739117;80;21060;-54
2022/07/11 02:20:39;;;;;;;12.85;5.75;;;;;;;16.40;100.00;98810.58;1734106;80;21064;-53
2022/07/11 02:23:06;;;;;;;9.73;5.55;;;;;;;16.36;100.00;98807.74;1738893;80;22624;-54
2022/07/11 02:25:38;;;;;;;10.78;4.97;;;;;;;16.33;100.00;98811.24;1733402;80;21061;-53
2022/07/11 02:28:02;;;;;;;12.58;7.03;;;;;;;16.32;100.00;98808.16;1730587;80;20980;-54
2022/07/11 02:30:29;;;;;;;17.70;8.58;;;;;;;16.32;100.00;98806.80;1737015;80;21041;-53
2022/07/11 02:32:56;;;;;;;17.60;8.75;;;;;;;16.32;100.00;98808.16;1738388;80;20982;-53
2022/07/11 02:35:22;;;;;;;15.95;10.80;;;;;;;16.32;100.00;98810.38;1736903;80;21061;-52
2022/07/11 02:37:48;;;;;;;20.72;10.53;;;;;;;16.33;100.00;98809.88;1742320;80;21778;-54
2022/07/11 02:40:15;;;;;;;21.80;12.13;;;;;;;16.34;100.00;98813.80;1737185;80;21083;-54
2022/07/11 02:42:41;;;;;;;22.70;12.25;;;;;;;16.37;100.00;98808.61;1735183;80;21065;-53
2022/07/11 02:45:09;;;;;;;18.87;11.33;;;;;;;16.37;100.00;98803.17;1738290;80;21055;-52
2022/07/11 02:47:39;;;;;;;24.65;12.53;;;;;;;16.35;100.00;98801.95;1738662;80;21147;-53
2022/07/11 02:50:08;;;;;;;24.82;12.47;;;;;;;16.33;100.00;98805.81;1737323;80;20871;-53
2022/07/11 02:52:36;;;;;;;25.80;12.73;;;;;;;16.32;100.00;98801.37;1739655;80;21347;-53
2022/07/11 02:55:03;;;;;;;22.82;12.03;;;;;;;16.28;100.00;98797.55;1738236;80;21390;-54
2022/07/11 02:57:30;;;;;;;24.63;11.97;;;;;;;16.29;100.00;98797.05;1737903;80;21505;-55
2022/07/11 02:59:56;;;;;;;25.45;12.10;;;;;;;16.29;100.00;98794.34;1736970;80;21896;-52
2022/07/11 03:02:23;;;;;;;21.97;10.13;;;;;;;16.31;100.00;98806.44;1741380;80;21491;-53
2022/07/11 03:04:50;;;;;;;21.20;10.53;;;;;;;16.32;100.00;98799.52;1739391;80;20954;-52
2022/07/11 03:07:18;;;;;;;20.50;10.13;;;;;;;16.35;100.00;98806.52;1737994;80;20910;-52
2022/07/11 03:09:44;;;;;;;20.27;10.38;;;;;;;16.35;100.00;98793.80;1742273;80;20930;-54
2022/07/11 03:12:11;;;;;;;20.70;11.15;;;;;;;16.37;100.00;98797.25;1745094;80;21205;-53
2022/07/11 03:14:39;;;;;;;17.55;10.30;;;;;;;16.40;100.00;98800.20;1735989;80;20954;-54
2022/07/11 03:17:05;;;;;;;21.05;11.40;;;;;;;16.41;100.00;98796.50;1741082;80;20918;-53
2022/07/11 03:19:31;;;;;;;23.10;11.80;;;;;;;16.44;100.00;98803.86;1736899;80;21369;-53
2022/07/11 03:21:58;;;;;;;19.90;11.83;;;;;;;16.46;100.00;98807.81;1736894;80;20926;-53
2022/07/11 03:24:25;;;;;;;24.23;11.55;;;;;;;16.45;100.00;98804.72;1736462;80;21149;-53
2022/07/11 03:26:51;;;;;;;22.90;11.97;;;;;;;16.44;100.00;98812.01;1738539;80;21073;-54
2022/07/11 03:29:18;;;;;;;23.22;12.95;;;;;;;16.47;100.00;98819.91;1703734;82;21088;-54
2022/07/11 03:31:44;;;;;;;21.17;11.05;;;;;;;16.48;100.00;98825.70;1733560;80;21737;-53
2022/07/11 03:34:12;;;;;;;16.07;8.98;;;;;;;16.51;100.00;98831.34;1696169;82;21046;-53
2022/07/11 03:36:39;;;;;;;18.57;8.58;;;;;;;16.55;100.00;98832.81;1738713;80;21596;-53
2022/07/11 03:39:06;;;;;;;15.93;9.08;;;;;;;16.57;100.00;98828.98;1735497;80;21539;-53
2022/07/11 03:41:33;;;;;;;13.08;6.72;;;;;;;16.62;100.00;98826.73;1736475;80;21054;-53
2022/07/11 03:43:59;;;;;;;8.95;6.15;;;;;;;16.66;100.00;98830.56;1740964;80;21124;-54
2022/07/11 03:46:25;;;;;;;13.10;6.53;;;;;;;16.64;100.00;98827.97;1700191;82;21061;-53
2022/07/11 03:48:52;;;;;;;9.75;4.95;;;;;;;16.62;100.00;98819.09;1736097;80;22375;-53
2022/07/11 03:51:18;;;;;;;11.85;5.47;;;;;;;16.62;100.00;98824.52;1736918;80;21057;-53
2022/07/11 03:53:46;;;;;;;4.87;3.08;;;;;;;16.61;100.00;98820.94;1738636;80;21096;-54
2022/07/11 03:56:16;;;;;;;5.65;2.22;;;;;;;16.62;100.00;98824.02;1732788;80;21100;-53
2022/07/11 03:58:41;;;;;;;6.25;3.02;;;;;;;16.62;100.00;98823.16;1736332;80;21084;-53
2022/07/11 04:01:07;;;;;;;3.52;2.05;;;;;;;16.62;100.00;98825.38;1735906;80;21766;-52
2022/07/11 04:03:34;;;;;;;6.37;2.77;;;;;;;16.62;100.00;98824.02;1736295;80;21069;-53
2022/07/11 04:06:01;;;;;;;5.20;1.67;;;;;;;16.66;100.00;98828.70;1730939;80;21018;-53
2022/07/11 04:08:28;;;;;;;4.75;2.55;;;;;;;16.68;100.00;98825.33;1733302;80;21085;-53
2022/07/11 04:10:54;;;;;;;4.12;1.80;;;;;;;16.70;100.00;98832.00;1736011;80;21041;-53
2022/07/11 04:13:21;;;;;;;4.70;2.65;;;;;;;16.70;100.00;98820.63;1735360;80;21132;-52
2022/07/11 04:15:47;;;;;;;4.85;2.25;;;;;;;16.72;100.00;98824.08;1699767;82;21047;-53
2022/07/11 04:18:14;;;;;;;9.43;2.20;;;;;;;16.72;100.00;98823.22;1734670;80;21026;-53
2022/07/11 04:20:41;;;;;;;4.05;2.02;;;;;;;16.72;100.00;98822.72;1740554;80;21714;-54
2022/07/11 04:23:09;;;;;;;5.42;2.27;;;;;;;16.76;100.00;98830.13;1744260;80;21135;-53
2022/07/11 04:25:35;;;;;;;5.03;2.17;;;;;;;16.79;100.00;98824.39;1734731;80;21221;-53
2022/07/11 04:28:01;;;;;;;6.10;3.05;;;;;;;16.81;100.00;98820.55;1739065;80;21018;-54
2022/07/11 04:30:28;;;;;;;5.95;2.02;;;;;;;16.82;100.00;98818.70;1741933;80;20995;-53
2022/07/11 04:32:55;;;;;;;7.55;2.35;;;;;;;16.83;100.00;98823.14;1737716;80;21131;-53
2022/07/11 04:35:23;;;;;;;4.83;2.83;;;;;;;16.83;100.00;98819.93;1732716;80;21028;-54
2022/07/11 04:37:49;;;;;;;8.15;2.90;;;;;;;16.86;100.00;98825.07;1733208;80;21598;-54
2022/07/11 04:40:17;;;;;;;9.73;2.33;;;;;;;16.87;100.00;98824.58;1736722;80;21049;-54
2022/07/11 04:42:44;;;;;;;7.22;2.50;;;;;;;16.91;100.00;98827.40;1739864;80;21073;-54
2022/07/11 04:45:10;;;;;;;7.87;2.92;;;;;;;16.95;100.00;98830.19;1740650;80;21078;-54
2022/07/11 04:47:37;;;;;;;3.70;1.92;;;;;;;16.96;100.00;98831.91;1713802;80;21163;-53
2022/07/11 04:50:05;;;;;;;3.10;1.60;;;;;;;16.99;100.00;98828.44;1733067;80;21122;-53
2022/07/11 04:52:31;;;;;;;5.15;2.55;;;;;;;17.02;100.00;98828.64;1743406;80;21002;-54
2022/07/11 04:54:58;;;;;;;4.80;2.33;;;;;;;17.02;100.00;98830.00;1739491;80;21006;-53
2022/07/11 04:57:26;;;;;;;4.10;2.12;;;;;;;17.02;100.00;98832.72;1736453;80;21069;-55
2022/07/11 04:59:52;;;;;;;4.20;2.30;;;;;;;17.02;100.00;98824.06;1745263;80;21038;-54
2022/07/11 05:02:19;;;;;;;4.62;1.55;;;;;;;17.04;100.00;98833.45;1746309;80;21510;-53
2022/07/11 05:04:45;;;;;;;3.62;2.15;;;;;;;17.08;100.00;98825.41;1734113;80;21099;-55
2022/07/11 05:07:16;;;;;;;6.78;2.45;;;;;;;17.10;100.00;98823.91;1741476;80;21547;-54
2022/07/11 05:09:40;;;;;;;3.62;2.27;;;;;;;17.13;100.00;98827.69;1737089;80;21096;-54
2022/07/11 05:12:08;;;;;;;6.05;2.67;;;;;;;17.16;100.00;98829.65;1736011;80;21021;-54
2022/07/11 05:14:35;;;;;;;6.58;2.65;;;;;;;17.21;100.00;98834.66;1735735;80;21168;-54
2022/07/11 05:17:04;;;;;;;6.65;2.98;;;;;;;17.25;100.00;98827.47;1744174;80;21089;-54
2022/07/11 05:19:31;;;;;;;3.72;2.02;;;;;;;17.30;100.00;98824.31;1736746;80;21124;-54
2022/07/11 05:21:57;;;;;;;5.17;2.20;;;;;;;17.38;100.00;98832.14;1741096;80;21125;-53
2022/07/11 05:24:25;;;;;;;5.12;2.62;;;;;;;17.46;100.00;98829.22;1747899;80;21073;-55
2022/07/11 05:26:51;;;;;;;4.12;1.90;;;;;;;17.53;100.00;98827.66;1745267;80;21787;-55
2022/07/11 05:29:17;;;;;;;3.55;1.82;;;;;;;17.58;100.00;98827.62;1744713;80;21093;-55
2022/07/11 05:33:57;;;;;;;5.17;2.35;;;;;;;17.78;100.00;98828.52;1790363;78;28092;-54
2022/07/11 05:36:23;;;;;;;6.97;3.35;;;;;;;17.82;100.00;98826.39;1767074;79;20949;-54
2022/07/11 05:38:49;;;;;;;6.20;2.40;;;;;;;17.90;100.00;98834.70;1764894;79;21641;-53
2022/07/11 05:41:16;;;;;;;2.77;2.45;;;;;;;17.96;100.00;98832.27;1763953;79;21004;-58
2022/07/11 05:43:42;;;;;;;6.25;2.80;;;;;;;18.02;100.00;98829.49;1769692;79;21025;-57
2022/07/11 05:46:08;;;;;;;4.58;2.42;;;;;;;18.04;100.00;98825.59;1768966;80;21048;-55
2022/07/11 05:48:35;;;;;;;5.05;1.72;;;;;;;18.11;100.00;98826.77;1767171;79;21013;-56
2022/07/11 05:51:02;;;;;;;3.92;1.60;;;;;;;18.21;100.00;98826.73;1764594;79;21325;-54
2022/07/11 05:53:29;;;;;;;3.87;2.15;;;;;;;18.33;100.00;98832.41;1765335;79;20978;-56
2022/07/11 05:55:56;;;;;;;3.90;2.37;;;;;;;18.44;100.00;98821.36;1771857;79;20981;-55
2022/07/11 05:58:23;;;;;;;3.60;1.77;;;;;;;18.54;100.00;98818.09;1758347;79;20943;-55
2022/07/11 06:00:49;;;;;;;6.25;2.37;;;;;;;18.60;100.00;98812.61;1755026;80;20991;-55
2022/07/11 06:03:16;;;;;;;4.10;2.10;;;;;;;18.68;100.00;98817.32;1721848;81;21555;-56
2022/07/11 06:05:42;;;;;;;3.83;2.10;;;;;;;18.74;100.00;98812.13;1674545;84;21140;-55
2022/07/11 06:10:54;;;;;;;6.50;2.33;;;;;;;18.84;100.00;98815.69;1696425;83;21587;-53
2022/07/11 06:13:21;;;;;;;3.47;1.70;;;;;;;18.92;100.00;98812.72;1694593;83;21090;-54
2022/07/11 06:15:48;;;;;;;5.87;1.70;;;;;;;19.01;100.00;98807.73;1695858;83;22188;-54
2022/07/11 06:18:16;;;;;;;6.28;1.42;;;;;;;19.09;100.00;98817.39;1698224;83;20891;-54
2022/07/11 06:20:43;;;;;;;3.85;1.72;;;;;;;19.20;100.00;98811.75;1693744;83;21033;-53
2022/07/11 06:23:09;;;;;;;2.95;2.15;;;;;;;19.31;100.00;98822.44;1711215;81;21153;-53
2022/07/11 06:25:36;;;;;;;5.30;2.00;;;;;;;19.44;100.00;98813.91;1682690;83;21572;-56
2022/07/11 06:28:03;;;;;;;4.10;1.47;;;;;;;19.51;100.00;98811.81;1691343;83;21532;-57
2022/07/11 06:30:30;;;;;;;5.08;1.72;;;;;;;19.55;100.00;98806.41;1687992;83;21481;-55
2022/07/11 06:32:58;;;;;;;6.97;1.67;;;;;;;19.62;100.00;98808.02;1678221;83;21085;-57
2022/07/11 06:35:24;;;;;;;5.97;1.87;;;;;;;19.68;100.00;98803.80;1731091;80;21163;-55
2022/07/11 06:37:51;;;;;;;3.75;0.95;;;;;;;19.77;100.00;98809.20;1737352;80;21633;-54
2022/07/11 06:40:18;;;;;;;5.60;2.20;;;;;;;19.87;100.00;98807.77;1739850;80;21838;-53
2022/07/11 06:42:44;;;;;;;7.40;1.30;;;;;;;19.98;100.00;98811.14;1736768;80;21055;-54
2022/07/11 06:45:11;;;;;;;3.12;1.57;;;;;;;20.08;100.00;98809.66;1677393;83;21438;-54
2022/07/11 06:47:37;;;;;;;3.05;1.02;;;;;;;20.15;100.00;98808.05;1738398;80;21083;-54
2022/07/11 06:50:05;;;;;;;2.87;1.10;;;;;;;20.26;100.00;98817.84;1741215;80;22130;-54
2022/07/11 06:52:32;;;;;;;4.20;1.00;;;;;;;20.34;100.00;98805.14;1736413;80;21170;-54
2022/07/11 06:54:59;;;;;;;3.75;1.65;;;;;;;20.39;100.00;98803.32;1741016;80;21036;-54
2022/07/11 06:57:25;;;;;;;3.75;1.35;;;;;;;20.45;100.00;98805.91;1745072;80;21144;-55
2022/07/11 06:59:52;;;;;;;4.80;1.20;;;;;;;20.46;100.00;98810.37;1739349;80;21558;-55
2022/07/11 07:02:19;;;;;;;1.50;0.88;;;;;;;20.44;100.00;98806.93;1737326;80;21261;-54
2022/07/11 07:04:46;;;;;;;3.27;0.90;;;;;;;20.42;100.00;98793.41;1744958;80;21233;-53
2022/07/11 07:07:14;;;;;;;4.92;1.00;;;;;;;20.44;100.00;98796.86;1740904;80;20972;-53
2022/07/11 07:09:42;;;;;;;3.27;1.10;;;;;;;20.47;100.00;98794.32;1746036;80;21004;-52
2022/07/11 07:12:08;;;;;;;2.33;1.10;;;;;;;20.51;100.00;98798.44;1737409;80;21085;-54
2022/07/11 07:14:35;;;;;;;2.87;1.00;;;;;;;20.57;100.00;98793.72;1735175;80;21051;-53
2022/07/11 07:17:02;;;;;;;2.60;0.90;;;;;;;20.62;100.00;98799.05;1741979;80;21771;-53
2022/07/11 07:19:29;;;;;;;3.00;1.00;;;;;;;20.64;100.00;98801.11;1740439;80;21055;-53
2022/07/11 07:21:55;;;;;;;1.62;1.00;;;;;;;20.64;100.00;98802.48;1741781;80;21054;-54
2022/07/11 07:24:21;;;;;;;3.90;0.70;;;;;;;20.65;100.00;98801.47;1745418;80;21121;-53
2022/07/11 07:26:49;;;;;;;8.08;1.00;;;;;;;20.66;100.00;98800.45;1742104;80;21067;-52
2022/07/11 07:29:16;;;;;;;2.05;0.90;;;;;;;20.67;100.00;98808.15;1743037;80;21529;-53
2022/07/11 07:31:43;;;;;;;2.12;0.75;;;;;;;20.71;100.00;98801.33;1738698;80;21572;-53
2022/07/11 07:34:09;;;;;;;2.08;0.85;;;;;;;20.74;100.00;98811.95;1733645;80;21158;-53
2022/07/11 07:36:36;;;;;;;2.08;0.80;;;;;;;20.78;100.00;98801.88;1733400;80;21065;-53
2022/07/11 07:39:04;;;;;;;3.05;0.85;;;;;;;20.83;100.00;98800.55;1741148;81;21569;-53
2022/07/11 07:41:31;;;;;;;1.40;0.70;;;;;;;20.82;100.00;98807.90;1737284;81;21916;-53
2022/07/11 07:43:57;;;;;;;2.30;0.75;;;;;;;20.80;100.00;98810.44;1737404;81;21059;-53
2022/07/11 07:46:24;;;;;;;1.80;0.70;;;;;;;20.78;100.00;98807.86;1737921;81;21058;-54
2022/07/11 07:48:51;;;;;;;2.87;0.65;;;;;;;20.78;100.00;98807.86;1735805;81;21780;-54
2022/07/11 07:51:17;;;;;;;1.90;0.70;;;;;;;20.79;100.00;98815.05;1736261;81;21032;-55
2022/07/11 07:53:44;;;;;;;1.32;0.60;;;;;;;20.81;100.00;98811.65;1733775;81;21105;-53
2022/07/11 07:56:10;;;;;;;4.12;0.60;;;;;;;20.83;100.00;98809.63;1739113;81;21084;-56
2022/07/11 07:58:38;;;;;;;2.95;0.60;;;;;;;20.85;100.00;98818.50;1734479;81;21083;-54
2022/07/11 08:03:50;;;;;;;1.75;0.60;;;;;;;20.86;100.00;98810.64;1731598;81;21103;-54
2022/07/11 08:06:16;;;;;;;0.72;0.50;;;;;;;20.88;100.00;98807.75;1736802;81;21340;-54
2022/07/11 08:08:44;;;;;;;1.85;0.68;;;;;;;20.87;100.00;98806.89;1734382;81;21739;-53
2022/07/11 08:11:11;;;;;;;0.80;0.50;;;;;;;20.89;100.00;98820.41;1732797;81;21146;-54
2022/07/11 08:13:37;;;;;;;1.52;0.60;;;;;;;20.87;100.00;98812.36;1729710;81;21173;-54
2022/07/11 08:16:06;;;;;;;1.37;0.60;;;;;;;20.85;100.00;98806.19;1736879;81;21100;-54
2022/07/11 08:18:34;;;;;;;1.20;0.50;;;;;;;20.88;100.00;98804.51;1738240;81;21150;-55
2022/07/11 08:21:00;;;;;;;1.15;0.50;;;;;;;20.94;100.00;98800.25;1727563;81;21048;-53
2022/07/11 08:23:27;;;;;;;0.95;0.55;;;;;;;20.96;100.00;98808.66;1731242;81;21063;-53
2022/07/11 08:25:54;;;;;;;0.75;0.50;;;;;;;20.97;100.00;98801.31;1733500;81;22596;-55
2022/07/11 08:28:20;;;;;;;0.70;0.57;;;;;;;20.99;100.00;98802.88;1727568;81;21099;-53
2022/07/11 08:30:46;;;;;;;5.08;0.70;;;;;;;21.00;100.00;98810.58;1729282;81;21092;-53
2022/07/11 08:33:13;;;;;;;1.67;1.27;;;;;;;21.01;100.00;98806.28;1729496;81;21376;-53
2022/07/11 08:35:40;;;;;;;1.42;0.70;;;;;;;21.03;100.00;98811.59;1715360;81;21104;-54
2022/07/11 08:38:06;;;;;;;1.85;0.60;;;;;;;21.08;100.00;98803.27;1713969;81;21087;-55
2022/07/11 08:40:32;;;;;;;2.83;0.50;;;;;;;21.09;100.00;98808.23;1714085;81;21147;-54
2022/07/11 08:42:59;;;;;;;1.98;0.60;;;;;;;21.08;100.00;98810.61;1708883;81;21804;-52
2022/07/11 08:45:31;;;;;;;1.87;0.60;;;;;;;21.07;100.00;98811.13;1716323;81;21034;-53
2022/07/11 08:47:58;;;;;;;1.70;0.50;;;;;;;21.06;100.00;98809.91;1709223;81;21788;-54
2022/07/11 08:50:28;;;;;;;3.85;0.53;;;;;;;21.04;100.00;98807.84;1717994;81;20950;-53
2022/07/11 08:52:54;;;;;;;3.45;0.60;;;;;;;21.06;100.00;98808.55;1713115;81;21534;-55
2022/07/11 08:55:21;;;;;;;0.98;0.57;;;;;;;21.09;100.00;98807.72;1715731;81;21097;-54
2022/07/11 08:57:47;;;;;;;1.47;0.50;;;;;;;21.12;100.00;98814.72;1711998;81;21114;-54
2022/07/11 09:00:14;;;;;;;1.10;0.53;;;;;;;21.15;100.00;98810.30;1712698;81;21346;-57
2022/07/11 09:02:42;;;;;;;0.60;0.40;;;;;;;21.19;100.00;98813.59;1714644;81;21552;-54
2022/07/11 09:05:11;;;;;;;0.90;0.40;;;;;;;21.26;100.00;98810.56;1714644;81;21099;-53
2022/07/11 09:07:49;;;;;;;1.82;0.40;;;;;;;21.37;100.00;98812.98;1711609;81;21160;-54
2022/07/11 09:10:17;;;;;;;1.20;0.40;;;;;;;21.43;100.00;98812.35;1715333;81;20960;-54
2022/07/11 09:13:08;;;;;;;1.57;0.47;;;;;;;21.48;100.00;98812.70;1716238;81;20959;-53
2022/07/11 09:15:44;;;;;;;2.55;0.40;;;;;;;21.52;100.00;98808.08;1709906;81;20898;-53
2022/07/11 09:18:40;;;;;;;1.22;0.40;;;;;;;21.57;100.00;98808.97;1714770;81;21043;-54
2022/07/11 09:26:48;;;;;;;1.55;0.50;;;;;;;21.84;100.00;98804.59;1716871;82;20986;-54
2022/07/11 09:29:24;;;;;;;1.72;0.68;;;;;;;21.93;100.00;98799.13;1714826;81;20921;-55
2022/07/11 09:31:50;;;;;;;2.58;0.60;;;;;;;22.04;100.00;98801.55;1712355;82;20985;-53
2022/07/11 09:34:19;;;;;;;1.72;1.00;;;;;;;22.13;100.00;98806.02;1729988;80;21036;-55
2022/07/11 09:36:51;;;;;;;2.10;0.85;;;;;;;22.23;100.00;98797.13;1733116;80;21111;-52
2022/07/11 09:39:20;;;;;;;2.15;0.80;;;;;;;22.32;100.00;98793.36;1735365;80;21059;-53
2022/07/11 09:41:48;;;;;;;4.33;1.37;;;;;;;22.37;100.00;98812.87;1737054;80;21331;-54
2022/07/11 09:44:28;;;;;;;2.37;0.60;;;;;;;22.33;100.00;98798.33;1743629;80;21066;-54
2022/07/11 09:47:00;;;;;;;1.80;0.70;;;;;;;22.23;100.00;98797.13;1738604;80;21249;-54
2022/07/11 09:49:36;;;;;;;2.40;0.80;;;;;;;22.12;100.00;98802.93;1736633;80;21050;-53
2022/07/11 09:52:16;;;;;;;1.32;0.80;;;;;;;22.03;100.00;98807.55;1741386;80;21427;-54
2022/07/11 09:55:00;;;;;;;3.55;0.72;;;;;;;21.90;100.00;98808.02;1736357;80;21631;-53
2022/07/11 09:57:40;;;;;;;4.05;0.70;;;;;;;21.74;100.00;98806.63;1739833;80;21399;-54
2022/07/11 10:00:11;;;;;;;2.62;0.78;;;;;;;21.57;100.00;98815.81;1738351;80;21067;-53
2022/07/11 10:02:38;;;;;;;3.12;0.70;;;;;;;21.42;100.00;98822.44;1742077;80;21033;-54
2022/07/11 10:05:05;;;;;;;1.00;0.60;;;;;;;21.31;100.00;98816.39;1733556;80;21043;-53
2022/07/11 10:07:33;;;;;;;0.98;0.60;;;;;;;21.18;100.00;98816.00;1733913;80;21105;-55
2022/07/11 10:10:00;;;;;;;2.33;0.80;;;;;;;21.02;100.00;98827.15;1736715;80;21057;-54
2022/07/11 10:12:29;;;;;;;2.47;0.70;;;;;;;20.88;100.00;98821.42;1735571;80;21106;-57
2022/07/11 10:14:56;;;;;;;1.65;0.65;;;;;;;20.65;100.00;98830.69;1734002;80;21052;-54
2022/07/11 10:18:01;;;;;;;2.37;0.80;;;;;;;20.42;100.00;98821.25;1743694;80;21115;-55
2022/07/11 10:20:56;;;;;;;3.17;0.70;;;;;;;20.27;100.00;98819.06;1740196;80;21039;-54
2022/07/11 10:23:34;;;;;;;4.30;0.90;;;;;;;20.14;100.00;98810.93;1736947;80;21036;-54
2022/07/11 10:26:17;;;;;;;1.12;0.70;;;;;;;20.08;100.00;98817.00;1743159;80;22478;-54
2022/07/11 10:28:48;;;;;;;1.12;0.60;;;;;;;20.07;100.00;98809.84;1744726;80;21075;-54
2022/07/11 10:31:22;;;;;;;2.75;0.70;;;;;;;20.06;100.00;98814.95;1721805;80;21059;-54
2022/07/11 10:34:10;;;;;;;1.95;0.70;;;;;;;20.07;100.00;98817.53;1744671;80;21145;-54
2022/07/11 10:36:41;;;;;;;1.67;0.70;;;;;;;20.10;100.00;98820.44;1736886;80;21088;-55
2022/07/11 10:39:27;;;;;;;1.90;0.80;;;;;;;20.10;100.00;98817.20;1738914;80;22610;-53
2022/07/11 10:41:51;;;;;;;3.77;0.70;;;;;;;20.10;100.00;98813.11;1739391;80;21172;-53
2022/07/11 10:44:18;;;;;;;2.77;0.75;;;;;;;20.13;100.00;98825.09;1736983;80;21130;-54
2022/07/11 10:46:45;;;;;;;2.98;0.70;;;;;;;20.17;100.00;98823.75;1736456;80;21149;-54
2022/07/11 10:49:20;;;;;;;1.57;0.60;;;;;;;20.21;100.00;98827.90;1740271;80;21070;-55
2022/07/11 10:51:59;;;;;;;2.45;0.72;;;;;;;20.20;100.00;98828.05;1736248;80;21243;-53
2022/07/11 10:55:19;;;;;;;2.33;0.68;;;;;;;20.13;100.00;98831.06;1705021;82;21517;-53
2022/07/11 10:58:24;;;;;;;2.25;0.70;;;;;;;20.08;100.00;98838.85;1738804;80;21713;-53
2022/07/11 11:01:10;;;;;;;2.90;0.70;;;;;;;20.01;100.00;98845.45;1737178;80;21030;-54
2022/07/11 11:03:40;;;;;;;1.52;0.60;;;;;;;19.96;100.00;98845.07;1741723;80;21100;-55
2022/07/11 11:06:07;;;;;;;1.32;0.70;;;;;;;19.93;100.00;98844.00;1737248;80;21422;-55
2022/07/11 11:08:40;;;;;;;1.35;0.80;;;;;;;19.86;100.00;98841.04;1739892;80;21096;-53
2022/07/11 11:11:35;;;;;;;2.35;0.80;;;;;;;19.81;100.00;98846.12;1737773;80;21644;-54
2022/07/11 11:14:22;;;;;;;2.33;0.80;;;;;;;19.77;100.00;98847.93;1700376;82;21101;-54
2022/07/11 11:16:49;;;;;;;0.98;0.60;;;;;;;19.73;100.00;98858.83;1740487;80;21045;-53
2022/07/11 11:19:50;;;;;;;1.60;0.60;;;;;;;19.63;100.00;98861.10;1740827;80;21671;-54
2022/07/11 11:22:19;;;;;;;1.10;0.60;;;;;;;19.61;100.00;98859.53;1734680;80;21064;-54
2022/07/11 11:24:47;;;;;;;0.85;0.55;;;;;;;19.62;100.00;98862.61;1739115;80;21149;-54
2022/07/11 11:27:22;;;;;;;1.20;0.60;;;;;;;19.59;100.00;98855.58;1742589;80;21028;-54
2022/07/11 11:29:55;;;;;;;5.17;0.70;;;;;;;19.53;100.00;98863.52;1736866;80;21607;-53
2022/07/11 11:32:24;;;;;;;1.72;0.80;;;;;;;19.46;100.00;98864.61;1734984;80;22069;-53
2022/07/11 11:34:51;;;;;;;1.07;0.60;;;;;;;19.36;100.00;98861.06;1739333;80;21477;-54
2022/07/11 11:37:17;;;;;;;2.27;0.60;;;;;;;19.29;100.00;98858.59;1737737;80;21053;-54
2022/07/11 11:39:44;;;;;;;1.52;0.60;;;;;;;19.23;100.00;98863.26;1740119;80;21035;-53
2022/07/11 11:42:16;;;;;;;1.85;0.88;;;;;;;19.20;100.00;98867.67;1744185;80;21656;-53
2022/07/11 11:45:00;;;;;;;2.05;0.70;;;;;;;19.15;100.00;98871.33;1742460;80;21244;-54